Wetterdaten: Woche 11.02.13 - 17.02.13 (KW7)
Datum Zeit Temp. A. Feuchte A. Luftdruck Regen Wind Richtung Taupunkt Windchill Windben
11.02.2013 00:00 -4,8 C 93 % 1012,3 hPa 0,0 l/m 5,5 km/h (2 Bft) O-SO -5,9 C -4,9 C 11,3 km/h (2 Bft)
11.02.2013 01:00 -5,2 C 93 % 1012,2 hPa 0,0 l/m 5,7 km/h (2 Bft) O -6,1 C -5,4 C 8,9 km/h (2 Bft)
11.02.2013 02:00 -5,2 C 93 % 1011,8 hPa 0,0 l/m 4,8 km/h (1 Bft) O -6,1 C -5,2 C 4,8 km/h (1 Bft)
11.02.2013 03:00 -5,2 C 93 % 1011,3 hPa 0,0 l/m 4,8 km/h (1 Bft) O -6,1 C -5,2 C 4,8 km/h (1 Bft)
11.02.2013 04:00 -5,2 C 93 % 1011,0 hPa 0,0 l/m 4,8 km/h (1 Bft) O -6,1 C -5,2 C 4,8 km/h (1 Bft)
11.02.2013 05:00 -6,0 C 90 % 1010,8 hPa 0,0 l/m 8,8 km/h (2 Bft) O -7,3 C -8,7 C 16,0 km/h (3 Bft)
11.02.2013 06:00 -5,8 C 89 % 1010,7 hPa 0,0 l/m 11,1 km/h (2 Bft) O -7,3 C -10,8 C 17,7 km/h (3 Bft)
11.02.2013 07:00 -5,8 C 89 % 1010,7 hPa 0,0 l/m 14,5 km/h (3 Bft) O -7,3 C -13,6 C 14,5 km/h (3 Bft)
11.02.2013 08:00 -5,8 C 89 % 1010,9 hPa 0,0 l/m 14,5 km/h (3 Bft) O -7,3 C -13,6 C 14,5 km/h (3 Bft)
11.02.2013 09:00 -5,3 C 88 % 1010,9 hPa 0,0 l/m 13,1 km/h (3 Bft) O -6,9 C -11,9 C 14,6 km/h (3 Bft)
11.02.2013 10:00 -3,1 C 86 % 1010,8 hPa 0,0 l/m 10,1 km/h (2 Bft) O -5,2 C -6,9 C 17,8 km/h (3 Bft)
11.02.2013 11:00 -2,0 C 83 % 1010,6 hPa 0,0 l/m 11,5 km/h (2 Bft) O -4,4 C -6,9 C 21,0 km/h (4 Bft)
11.02.2013 12:00 -1,6 C 83 % 1010,5 hPa 0,0 l/m 13,4 km/h (3 Bft) O -4,1 C -7,7 C 23,2 km/h (4 Bft)
11.02.2013 13:00 -1,0 C 82 % 1010,5 hPa 0,0 l/m 14,4 km/h (3 Bft) O -3,7 C -7,8 C 24,9 km/h (4 Bft)
11.02.2013 14:00 -1,2 C 83 % 1010,7 hPa 0,0 l/m 11,4 km/h (2 Bft) O -3,6 C -5,8 C 20,9 km/h (4 Bft)
11.02.2013 15:00 -1,1 C 83 % 1010,8 hPa 0,0 l/m 10,9 km/h (2 Bft) O -3,6 C -5,3 C 19,3 km/h (3 Bft)
11.02.2013 16:00 -1,1 C 84 % 1010,8 hPa 0,0 l/m 8,0 km/h (2 Bft) O-NO -3,4 C -2,8 C 16,1 km/h (3 Bft)
11.02.2013 17:00 -1,1 C 85 % 1010,8 hPa 0,0 l/m 9,4 km/h (2 Bft) O-NO -3,3 C -4,1 C 17,4 km/h (3 Bft)
11.02.2013 18:00 -1,1 C 84 % 1011,1 hPa 0,0 l/m 9,3 km/h (2 Bft) O -3,4 C -4,0 C 18,2 km/h (3 Bft)
11.02.2013 19:00 -1,1 C 83 % 1011,4 hPa 0,0 l/m 9,4 km/h (2 Bft) O -3,7 C -4,1 C 17,7 km/h (3 Bft)
11.02.2013 20:00 -1,1 C 82 % 1011,6 hPa 0,0 l/m 9,7 km/h (2 Bft) O -3,8 C -4,4 C 16,9 km/h (3 Bft)
11.02.2013 21:00 -1,1 C 82 % 1011,9 hPa 0,0 l/m 7,7 km/h (2 Bft) O-NO -3,8 C -2,4 C 15,3 km/h (3 Bft)
11.02.2013 22:00 -1,2 C 84 % 1012,1 hPa 0,0 l/m 8,0 km/h (2 Bft) O-NO -3,6 C -2,9 C 14,5 km/h (3 Bft)
11.02.2013 23:00 -1,3 C 85 % 1012,3 hPa 0,0 l/m 8,3 km/h (2 Bft) O-NO -3,5 C -3,3 C 13,8 km/h (3 Bft)
12.02.2013 00:00 -1,4 C 87 % 1012,7 hPa 0,0 l/m 7,7 km/h (2 Bft) NO -3,4 C -2,8 C 13,7 km/h (3 Bft)
12.02.2013 01:00 -2,1 C 88 % 1012,7 hPa 0,0 l/m 7,9 km/h (2 Bft) NO -3,8 C -3,7 C 13,0 km/h (3 Bft)
12.02.2013 02:00 -2,4 C 90 % 1012,6 hPa 0,0 l/m 9,7 km/h (2 Bft) NO -3,8 C -5,8 C 15,3 km/h (3 Bft)
12.02.2013 03:00 -2,4 C 91 % 1012,7 hPa 0,0 l/m 9,6 km/h (2 Bft) NO -3,7 C -5,7 C 14,6 km/h (3 Bft)
12.02.2013 04:00 -2,2 C 91 % 1012,9 hPa 0,0 l/m 9,2 km/h (2 Bft) NO -3,5 C -5,1 C 13,7 km/h (3 Bft)
12.02.2013 05:00 -2,2 C 92 % 1013,1 hPa 0,0 l/m 9,3 km/h (2 Bft) NO -3,3 C -5,1 C 14,5 km/h (3 Bft)
12.02.2013 06:00 -2,1 C 92 % 1013,2 hPa 0,0 l/m 10,7 km/h (2 Bft) NO -3,2 C -6,4 C 15,7 km/h (3 Bft)
12.02.2013 07:00 -2,1 C 92 % 1013,5 hPa 0,0 l/m 9,5 km/h (2 Bft) NO -3,2 C -5,2 C 14,6 km/h (3 Bft)
12.02.2013 08:00 -2,0 C 92 % 1014,0 hPa 0,0 l/m 8,2 km/h (2 Bft) NO -3,1 C -3,9 C 12,1 km/h (2 Bft)
12.02.2013 09:00 -1,9 C 92 % 1014,5 hPa 0,0 l/m 6,0 km/h (2 Bft) NO -3,0 C -2,3 C 9,1 km/h (2 Bft)
12.02.2013 10:00 -1,7 C 91 % 1014,9 hPa 0,0 l/m 8,1 km/h (2 Bft) N-NO -2,9 C -3,5 C 11,7 km/h (2 Bft)
12.02.2013 11:00 -1,3 C 90 % 1015,1 hPa 0,0 l/m 6,6 km/h (2 Bft) NO -2,7 C -1,7 C 10,1 km/h (2 Bft)
12.02.2013 12:00 -0,7 C 86 % 1015,2 hPa 0,0 l/m 7,7 km/h (2 Bft) NO -2,8 C -2,0 C 11,6 km/h (2 Bft)
12.02.2013 13:00 0,3 C 73 % 1014,9 hPa 0,0 l/m 8,6 km/h (2 Bft) N-NO -4,0 C -2,0 C 13,9 km/h (3 Bft)
12.02.2013 14:00 0,2 C 66 % 1014,8 hPa 0,0 l/m 8,8 km/h (2 Bft) NO -5,3 C -2,1 C 13,4 km/h (3 Bft)
12.02.2013 15:00 0,2 C 66 % 1015,0 hPa 0,0 l/m 7,4 km/h (2 Bft) NO -5,3 C -1,2 C 11,6 km/h (2 Bft)
12.02.2013 16:00 -0,4 C 71 % 1015,3 hPa 0,0 l/m 5,1 km/h (1 Bft) N-NO -5,1 C -0,6 C 7,8 km/h (2 Bft)
12.02.2013 17:00 -1,4 C 75 % 1015,8 hPa 0,0 l/m 0,9 km/h (0 Bft) N-NO -5,2 C -1,4 C 1,5 km/h (1 Bft)
12.02.2013 18:00 -2,9 C 85 % 1016,6 hPa 0,0 l/m 0,0 km/h (0 Bft) N -5,1 C -2,9 C 0,0 km/h (0 Bft)
12.02.2013 19:00 -2,6 C 84 % 1016,9 hPa 0,0 l/m 0,0 km/h (0 Bft) N -4,9 C -2,6 C 0,0 km/h (0 Bft)
12.02.2013 20:00 -2,7 C 89 % 1017,3 hPa 0,0 l/m 0,0 km/h (0 Bft) N -4,2 C -2,7 C 0,0 km/h (0 Bft)
12.02.2013 21:00 -2,3 C 89 % 1017,8 hPa 0,0 l/m 0,7 km/h (0 Bft) NW -4,0 C -2,3 C 1,2 km/h (1 Bft)
12.02.2013 22:00 -2,5 C 89 % 1018,1 hPa 0,0 l/m 0,0 km/h (0 Bft) N -4,1 C -2,5 C 0,1 km/h (0 Bft)
12.02.2013 23:00 -2,7 C 91 % 1018,4 hPa 0,0 l/m 0,0 km/h (0 Bft) N -4,0 C -2,7 C 0,0 km/h (0 Bft)
13.02.2013 00:00 -2,4 C 92 % 1018,8 hPa 0,0 l/m 0,0 km/h (0 Bft) N -3,5 C -2,4 C 0,0 km/h (0 Bft)
13.02.2013 01:00 -2,4 C 93 % 1019,2 hPa 0,0 l/m 0,0 km/h (0 Bft) N -3,4 C -2,4 C 0,0 km/h (0 Bft)
13.02.2013 02:00 -2,1 C 93 % 1019,7 hPa 0,0 l/m 0,0 km/h (0 Bft) N -3,1 C -2,1 C 0,0 km/h (0 Bft)
13.02.2013 03:00 -1,8 C 94 % 1020,2 hPa 0,0 l/m 1,4 km/h (1 Bft) N-NO -2,6 C -1,8 C 2,0 km/h (1 Bft)
13.02.2013 04:00 -1,7 C 93 % 1020,7 hPa 0,0 l/m 4,4 km/h (1 Bft) N-NO -2,7 C -1,7 C 7,0 km/h (2 Bft)
13.02.2013 05:00 -2,2 C 93 % 1021,2 hPa 0,0 l/m 7,8 km/h (2 Bft) N-NO -3,1 C -3,8 C 11,3 km/h (2 Bft)
13.02.2013 06:00 -3,0 C 95 % 1021,8 hPa 0,0 l/m 7,2 km/h (2 Bft) N-NO -3,7 C -4,0 C 10,2 km/h (2 Bft)
13.02.2013 07:00 -2,9 C 96 % 1022,5 hPa 0,0 l/m 2,0 km/h (1 Bft) NO -3,5 C -2,9 C 3,9 km/h (1 Bft)
13.02.2013 08:00 -2,4 C 95 % 1023,3 hPa 0,0 l/m 4,4 km/h (1 Bft) N-NO -3,0 C -2,4 C 7,8 km/h (2 Bft)
13.02.2013 09:00 -2,1 C 92 % 1024,0 hPa 0,0 l/m 5,5 km/h (2 Bft) N-NO -3,2 C -2,4 C 9,3 km/h (2 Bft)
13.02.2013 10:00 -1,8 C 91 % 1024,5 hPa 0,0 l/m 3,3 km/h (1 Bft) N-NW -3,1 C -1,8 C 6,0 km/h (2 Bft)
13.02.2013 11:00 -0,6 C 87 % 1025,2 hPa 0,0 l/m 1,3 km/h (1 Bft) O -2,4 C -0,6 C 2,9 km/h (1 Bft)
13.02.2013 12:00 -0,3 C 86 % 1025,6 hPa 0,0 l/m 5,2 km/h (1 Bft) O-NO -2,4 C -0,4 C 9,3 km/h (2 Bft)
13.02.2013 13:00 -0,1 C 84 % 1025,8 hPa 0,0 l/m 6,2 km/h (2 Bft) NO -2,5 C -0,6 C 10,3 km/h (2 Bft)
13.02.2013 14:00 -0,2 C 83 % 1026,1 hPa 0,0 l/m 3,0 km/h (1 Bft) NO -2,7 C -0,3 C 6,4 km/h (2 Bft)
13.02.2013 15:00 -0,4 C 85 % 1026,6 hPa 0,0 l/m 1,1 km/h (0 Bft) NW -2,6 C -0,4 C 2,3 km/h (1 Bft)
13.02.2013 16:00 -0,5 C 87 % 1027,0 hPa 0,0 l/m 2,5 km/h (1 Bft) O-NO -2,5 C -0,5 C 5,1 km/h (1 Bft)
13.02.2013 17:00 -1,2 C 88 % 1027,4 hPa 0,0 l/m 3,0 km/h (1 Bft) O -2,9 C -1,2 C 5,3 km/h (1 Bft)
13.02.2013 18:00 -1,8 C 89 % 1027,6 hPa 0,0 l/m 0,8 km/h (0 Bft) O-SO -3,4 C -1,8 C 2,9 km/h (1 Bft)
13.02.2013 19:00 -2,7 C 90 % 1027,6 hPa 0,0 l/m 0,3 km/h (0 Bft) SO -4,0 C -2,7 C 1,2 km/h (1 Bft)
13.02.2013 20:00 -3,9 C 93 % 1028,0 hPa 0,0 l/m 0,0 km/h (0 Bft) N -4,9 C -3,9 C 0,0 km/h (0 Bft)
13.02.2013 21:00 -4,8 C 94 % 1028,4 hPa 0,0 l/m 0,0 km/h (0 Bft) N -5,6 C -4,8 C 0,0 km/h (0 Bft)
13.02.2013 22:00 -5,2 C 95 % 1028,3 hPa 0,0 l/m 0,0 km/h (0 Bft) N -5,9 C -5,2 C 0,0 km/h (0 Bft)
13.02.2013 23:00 -5,8 C 95 % 1028,4 hPa 0,0 l/m 0,0 km/h (0 Bft) N -6,5 C -5,8 C 0,0 km/h (0 Bft)
14.02.2013 00:00 -6,5 C 95 % 1028,6 hPa 0,0 l/m 0,0 km/h (0 Bft) N -7,2 C -6,5 C 0,0 km/h (0 Bft)
14.02.2013 01:00 -7,2 C 94 % 1028,3 hPa 0,0 l/m 0,0 km/h (0 Bft) N -8,0 C -7,2 C 0,0 km/h (0 Bft)
14.02.2013 02:00 -7,1 C 95 % 1028,1 hPa 0,0 l/m 0,1 km/h (0 Bft) O-SO -7,7 C -7,1 C 0,7 km/h (0 Bft)
14.02.2013 03:00 -7,2 C 95 % 1027,5 hPa 0,0 l/m 0,1 km/h (0 Bft) O -7,9 C -7,2 C 0,9 km/h (0 Bft)
14.02.2013 04:00 -7,2 C 95 % 1027,1 hPa 0,0 l/m 0,1 km/h (0 Bft) N -7,9 C -7,2 C 0,6 km/h (0 Bft)
14.02.2013 05:00 -7,7 C 94 % 1026,8 hPa 0,0 l/m 1,2 km/h (1 Bft) O-SO -8,5 C -7,7 C 3,9 km/h (1 Bft)
14.02.2013 06:00 -8,1 C 94 % 1026,4 hPa 0,0 l/m 1,0 km/h (0 Bft) O -8,8 C -8,1 C 3,5 km/h (1 Bft)
14.02.2013 07:00 -8,3 C 94 % 1026,2 hPa 0,0 l/m 1,4 km/h (1 Bft) O-SO -9,1 C -8,3 C 4,0 km/h (1 Bft)
14.02.2013 08:00 -7,1 C 95 % 1026,0 hPa 0,0 l/m 1,4 km/h (1 Bft) SO -7,8 C -7,1 C 3,6 km/h (1 Bft)
14.02.2013 09:00 -5,7 C 95 % 1025,6 hPa 0,0 l/m 3,1 km/h (1 Bft) O-SO -6,4 C -5,7 C 7,3 km/h (2 Bft)
14.02.2013 10:00 -4,9 C 95 % 1025,3 hPa 0,0 l/m 4,9 km/h (1 Bft) O-SO -5,5 C -4,9 C 10,2 km/h (2 Bft)
14.02.2013 11:00 -4,0 C 95 % 1024,6 hPa 0,0 l/m 5,1 km/h (1 Bft) O-SO -4,7 C -4,0 C 11,2 km/h (2 Bft)
14.02.2013 12:00 -3,4 C 94 % 1023,7 hPa 0,0 l/m 6,5 km/h (2 Bft) O-SO -4,3 C -4,0 C 13,3 km/h (3 Bft)
14.02.2013 13:00 -2,0 C 90 % 1022,5 hPa 0,0 l/m 7,3 km/h (2 Bft) O-SO -3,5 C -3,0 C 14,8 km/h (3 Bft)
14.02.2013 14:00 -1,1 C 85 % 1021,5 hPa 0,0 l/m 7,3 km/h (2 Bft) O-SO -3,2 C -2,3 C 16,0 km/h (3 Bft)
14.02.2013 15:00 -1,2 C 84 % 1020,9 hPa 0,0 l/m 7,4 km/h (2 Bft) SO -3,5 C -2,3 C 13,7 km/h (3 Bft)
14.02.2013 16:00 -1,6 C 85 % 1020,2 hPa 0,0 l/m 6,9 km/h (2 Bft) SO -3,7 C -2,4 C 14,2 km/h (3 Bft)
14.02.2013 17:00 -2,2 C 88 % 1019,6 hPa 0,0 l/m 4,9 km/h (1 Bft) O-SO -3,9 C -2,2 C 11,8 km/h (2 Bft)
14.02.2013 18:00 -2,4 C 90 % 1019,2 hPa 0,0 l/m 5,0 km/h (1 Bft) O-SO -3,8 C -2,4 C 10,9 km/h (2 Bft)
14.02.2013 19:00 -2,4 C 90 % 1018,8 hPa 0,0 l/m 4,4 km/h (1 Bft) SO -3,8 C -2,4 C 10,6 km/h (2 Bft)
14.02.2013 20:00 -2,5 C 90 % 1018,4 hPa 0,0 l/m 5,3 km/h (1 Bft) O-SO -3,9 C -2,5 C 11,3 km/h (2 Bft)
14.02.2013 21:00 -2,5 C 90 % 1018,2 hPa 0,0 l/m 3,3 km/h (1 Bft) O-SO -3,9 C -2,5 C 3,7 km/h (1 Bft)
14.02.2013 22:00 -2,5 C 90 % 1018,1 hPa 0,0 l/m 3,2 km/h (1 Bft) O-SO -3,9 C -2,5 C 3,2 km/h (1 Bft)
14.02.2013 23:00 -2,5 C 90 % 1017,6 hPa 0,0 l/m 3,2 km/h (1 Bft) O-SO -3,9 C -2,5 C 3,2 km/h (1 Bft)
15.02.2013 00:00 -2,5 C 90 % 1017,3 hPa 0,0 l/m 3,2 km/h (1 Bft) O-SO -3,9 C -2,5 C 3,2 km/h (1 Bft)
15.02.2013 01:00 -2,5 C 90 % 1017,2 hPa 0,0 l/m 3,2 km/h (1 Bft) O-SO -3,9 C -2,5 C 3,2 km/h (1 Bft)
15.02.2013 02:00 -2,5 C 90 % 1017,0 hPa 0,0 l/m 3,2 km/h (1 Bft) O-SO -3,9 C -2,5 C 3,2 km/h (1 Bft)
15.02.2013 03:00 -2,5 C 90 % 1016,8 hPa 0,0 l/m 3,2 km/h (1 Bft) O-SO -3,9 C -2,5 C 3,2 km/h (1 Bft)
15.02.2013 04:00 -2,5 C 90 % 1016,7 hPa 0,0 l/m 3,2 km/h (1 Bft) O-SO -3,9 C -2,5 C 3,2 km/h (1 Bft)
15.02.2013 05:00 -2,5 C 90 % 1016,7 hPa 0,0 l/m 3,2 km/h (1 Bft) O-SO -3,9 C -2,5 C 3,2 km/h (1 Bft)
15.02.2013 06:00 -2,5 C 90 % 1017,0 hPa 0,0 l/m 3,2 km/h (1 Bft) O-SO -3,9 C -2,5 C 3,2 km/h (1 Bft)
15.02.2013 07:00 -2,5 C 90 % 1017,3 hPa 0,0 l/m 3,2 km/h (1 Bft) O-SO -3,9 C -2,5 C 3,2 km/h (1 Bft)
15.02.2013 08:00 -2,5 C 90 % 1017,8 hPa 0,0 l/m 3,2 km/h (1 Bft) O-SO -3,9 C -2,5 C 3,2 km/h (1 Bft)
15.02.2013 09:00 -2,4 C 90 % 1018,1 hPa 0,0 l/m 3,1 km/h (1 Bft) O-SO -3,8 C -2,4 C 3,6 km/h (1 Bft)
15.02.2013 10:00 -1,0 C 91 % 1018,4 hPa 0,0 l/m 1,8 km/h (1 Bft) O-SO -2,2 C -1,0 C 4,8 km/h (1 Bft)
15.02.2013 11:00 0,3 C 88 % 1018,8 hPa 0,0 l/m 2,8 km/h (1 Bft) O -1,5 C 0,3 C 6,1 km/h (2 Bft)
15.02.2013 12:00 2,0 C 80 % 1018,8 hPa 0,0 l/m 2,1 km/h (1 Bft) S-SO -1,1 C 2,0 C 5,3 km/h (1 Bft)
15.02.2013 13:00 2,6 C 75 % 1018,7 hPa 0,2 l/m 2,2 km/h (1 Bft) O-SO -1,3 C 2,6 C 4,9 km/h (1 Bft)
15.02.2013 14:00 2,6 C 77 % 1018,8 hPa 0,2 l/m 2,0 km/h (1 Bft) S-SO -1,1 C 2,6 C 4,5 km/h (1 Bft)
15.02.2013 15:00 2,5 C 78 % 1018,9 hPa 0,0 l/m 1,5 km/h (1 Bft) S-SO -0,9 C 2,5 C 4,1 km/h (1 Bft)
15.02.2013 16:00 2,2 C 79 % 1019,2 hPa 0,0 l/m 0,3 km/h (0 Bft) S-SO -1,0 C 2,2 C 0,5 km/h (0 Bft)
15.02.2013 17:00 1,7 C 80 % 1019,6 hPa 0,0 l/m 0,0 km/h (0 Bft) N -1,4 C 1,7 C 0,0 km/h (0 Bft)
15.02.2013 18:00 1,4 C 82 % 1020,2 hPa 0,0 l/m 0,0 km/h (0 Bft) N -1,4 C 1,4 C 0,1 km/h (0 Bft)
15.02.2013 19:00 1,2 C 84 % 1020,5 hPa 0,0 l/m 0,1 km/h (0 Bft) N -1,2 C 1,2 C 0,4 km/h (0 Bft)
15.02.2013 20:00 0,9 C 86 % 1020,8 hPa 0,0 l/m 0,0 km/h (0 Bft) N -1,2 C 0,9 C 0,0 km/h (0 Bft)
15.02.2013 21:00 0,8 C 87 % 1021,1 hPa 0,0 l/m 0,0 km/h (0 Bft) N -1,1 C 0,8 C 0,0 km/h (0 Bft)
15.02.2013 22:00 0,7 C 88 % 1021,2 hPa 0,0 l/m 0,0 km/h (0 Bft) N -1,0 C 0,7 C 0,0 km/h (0 Bft)
15.02.2013 23:00 0,7 C 89 % 1021,3 hPa 0,0 l/m 0,0 km/h (0 Bft) N -0,9 C 0,7 C 0,0 km/h (0 Bft)
16.02.2013 00:00 0,7 C 90 % 1021,4 hPa 0,0 l/m 0,0 km/h (0 Bft) N -0,7 C 0,7 C 0,0 km/h (0 Bft)
16.02.2013 01:00 0,7 C 91 % 1021,7 hPa 0,0 l/m 0,1 km/h (0 Bft) SO -0,6 C 0,7 C 0,5 km/h (0 Bft)
16.02.2013 02:00 0,8 C 92 % 1021,7 hPa 0,0 l/m 0,4 km/h (0 Bft) O-SO -0,4 C 0,8 C 2,1 km/h (1 Bft)
16.02.2013 03:00 0,8 C 93 % 1021,5 hPa 0,0 l/m 0,3 km/h (0 Bft) O-SO -0,2 C 0,8 C 1,2 km/h (1 Bft)
16.02.2013 04:00 0,6 C 94 % 1021,5 hPa 0,4 l/m 0,0 km/h (0 Bft) N -0,3 C 0,6 C 0,5 km/h (0 Bft)
16.02.2013 05:00 0,4 C 95 % 1021,6 hPa 0,0 l/m 0,1 km/h (0 Bft) N -0,3 C 0,4 C 0,4 km/h (0 Bft)
16.02.2013 06:00 0,5 C 96 % 1021,8 hPa 0,4 l/m 0,0 km/h (0 Bft) N -0,1 C 0,5 C 0,0 km/h (0 Bft)
16.02.2013 07:00 0,5 C 96 % 1022,1 hPa 0,6 l/m 0,0 km/h (0 Bft) N -0,1 C 0,5 C 0,0 km/h (0 Bft)
16.02.2013 08:00 0,7 C 96 % 1022,6 hPa 0,6 l/m 0,0 km/h (0 Bft) N 0,1 C 0,7 C 0,0 km/h (0 Bft)
16.02.2013 09:00 1,0 C 96 % 1023,1 hPa 0,2 l/m 0,3 km/h (0 Bft) O-SO 0,4 C 1,0 C 1,2 km/h (1 Bft)
16.02.2013 10:00 1,5 C 97 % 1023,4 hPa 0,0 l/m 0,3 km/h (0 Bft) S-SO 1,1 C 1,5 C 1,5 km/h (1 Bft)
16.02.2013 11:00 2,3 C 97 % 1023,7 hPa 0,0 l/m 0,0 km/h (0 Bft) N 1,8 C 2,3 C 0,0 km/h (0 Bft)
16.02.2013 12:00 2,7 C 97 % 1023,7 hPa 0,0 l/m 0,0 km/h (0 Bft) N 2,3 C 2,7 C 0,0 km/h (0 Bft)
16.02.2013 13:00 2,8 C 96 % 1023,5 hPa 0,0 l/m 0,0 km/h (0 Bft) N 2,3 C 2,8 C 0,0 km/h (0 Bft)
16.02.2013 14:00 2,7 C 97 % 1023,5 hPa 0,0 l/m 0,9 km/h (0 Bft) O 2,2 C 2,7 C 2,3 km/h (1 Bft)
16.02.2013 15:00 2,8 C 97 % 1023,5 hPa 0,0 l/m 0,4 km/h (0 Bft) O 2,3 C 2,8 C 0,8 km/h (0 Bft)
16.02.2013 16:00 2,5 C 97 % 1023,9 hPa 0,0 l/m 0,3 km/h (0 Bft) O 2,1 C 2,5 C 0,9 km/h (0 Bft)
16.02.2013 17:00 2,1 C 97 % 1024,1 hPa 0,0 l/m 0,5 km/h (0 Bft) O-SO 1,7 C 2,1 C 1,6 km/h (1 Bft)
16.02.2013 18:00 1,7 C 97 % 1024,5 hPa 0,0 l/m 0,1 km/h (0 Bft) NO 1,3 C 1,7 C 0,3 km/h (0 Bft)
16.02.2013 19:00 1,3 C 97 % 1024,8 hPa 0,0 l/m 1,6 km/h (1 Bft) O-NO 0,9 C 1,3 C 3,5 km/h (1 Bft)
16.02.2013 20:00 1,0 C 97 % 1025,0 hPa 0,0 l/m 0,6 km/h (0 Bft) NO 0,6 C 1,0 C 2,0 km/h (1 Bft)
16.02.2013 21:00 0,9 C 97 % 1025,2 hPa 0,0 l/m 0,0 km/h (0 Bft) N 0,5 C 0,9 C 0,0 km/h (0 Bft)
16.02.2013 22:00 0,8 C 97 % 1025,6 hPa 0,0 l/m 0,0 km/h (0 Bft) N 0,4 C 0,8 C 0,0 km/h (0 Bft)
16.02.2013 23:00 0,8 C 98 % 1025,7 hPa 0,0 l/m 0,0 km/h (0 Bft) N 0,5 C 0,8 C 0,0 km/h (0 Bft)
17.02.2013 00:00 0,7 C 98 % 1025,8 hPa 0,0 l/m 0,0 km/h (0 Bft) N 0,4 C 0,7 C 0,0 km/h (0 Bft)
17.02.2013 01:00 0,7 C 98 % 1025,8 hPa 0,0 l/m 0,0 km/h (0 Bft) N 0,4 C 0,7 C 0,0 km/h (0 Bft)
17.02.2013 02:00 0,7 C 98 % 1025,7 hPa 0,0 l/m 1,4 km/h (1 Bft) O 0,4 C 0,7 C 3,6 km/h (1 Bft)
17.02.2013 03:00 0,5 C 98 % 1025,7 hPa 0,0 l/m 0,3 km/h (0 Bft) O 0,2 C 0,5 C 0,8 km/h (0 Bft)
17.02.2013 04:00 0,1 C 98 % 1025,7 hPa 0,0 l/m 0,0 km/h (0 Bft) N -0,2 C 0,1 C 0,0 km/h (0 Bft)
17.02.2013 05:00 -0,2 C 98 % 1025,8 hPa 0,0 l/m 0,0 km/h (0 Bft) N -0,4 C -0,2 C 0,0 km/h (0 Bft)
17.02.2013 06:00 -0,1 C 98 % 1025,9 hPa 0,0 l/m 0,7 km/h (0 Bft) N-NO -0,4 C -0,1 C 1,3 km/h (1 Bft)
17.02.2013 07:00 -0,1 C 98 % 1026,1 hPa 0,0 l/m 0,0 km/h (0 Bft) N -0,4 C -0,1 C 0,0 km/h (0 Bft)
17.02.2013 08:00 -0,0 C 98 % 1026,3 hPa 0,0 l/m 0,0 km/h (0 Bft) N -0,3 C -0,0 C 0,0 km/h (0 Bft)
17.02.2013 09:00 0,4 C 98 % 1026,4 hPa 0,0 l/m 0,6 km/h (0 Bft) N-NO 0,1 C 0,4 C 1,5 km/h (1 Bft)
17.02.2013 10:00 1,2 C 98 % 1026,4 hPa 0,0 l/m 2,6 km/h (1 Bft) O 1,0 C 1,2 C 4,9 km/h (1 Bft)
17.02.2013 11:00 1,6 C 98 % 1026,5 hPa 0,0 l/m 3,0 km/h (1 Bft) O 1,3 C 1,6 C 4,3 km/h (1 Bft)
17.02.2013 12:00 1,6 C 98 % 1026,4 hPa 0,0 l/m 3,2 km/h (1 Bft) O 1,3 C 1,6 C 3,2 km/h (1 Bft)
17.02.2013 13:00 1,6 C 98 % 1026,0 hPa 0,0 l/m 3,2 km/h (1 Bft) O 1,3 C 1,6 C 3,2 km/h (1 Bft)
17.02.2013 14:00 2,1 C 94 % 1025,6 hPa 0,0 l/m 2,2 km/h (1 Bft) O 1,2 C 2,1 C 3,6 km/h (1 Bft)
17.02.2013 15:00 2,4 C 91 % 1025,5 hPa 0,0 l/m 0,8 km/h (0 Bft) O-NO 1,0 C 2,4 C 3,2 km/h (1 Bft)
17.02.2013 16:00 2,1 C 90 % 1025,3 hPa 0,0 l/m 0,0 km/h (0 Bft) N 0,7 C 2,1 C 0,0 km/h (0 Bft)
17.02.2013 17:00 1,5 C 91 % 1025,2 hPa 0,0 l/m 0,0 km/h (0 Bft) N 0,2 C 1,5 C 0,0 km/h (0 Bft)
17.02.2013 18:00 0,9 C 94 % 1025,4 hPa 0,0 l/m 1,1 km/h (1 Bft) O-NO -0,0 C 0,9 C 2,9 km/h (1 Bft)
17.02.2013 19:00 0,5 C 95 % 1025,5 hPa 0,0 l/m 0,3 km/h (0 Bft) N -0,2 C 0,5 C 0,8 km/h (0 Bft)
17.02.2013 20:00 0,2 C 95 % 1025,4 hPa 0,0 l/m 0,0 km/h (0 Bft) N -0,5 C 0,2 C 0,0 km/h (0 Bft)
17.02.2013 21:00 -0,1 C 96 % 1025,2 hPa 0,0 l/m 0,0 km/h (0 Bft) N -0,7 C -0,1 C 0,0 km/h (0 Bft)
17.02.2013 22:00 -0,2 C 96 % 1025,1 hPa 0,0 l/m 0,0 km/h (0 Bft) N -0,7 C -0,2 C 0,0 km/h (0 Bft)
17.02.2013 23:00 -0,2 C 96 % 1024,9 hPa 0,0 l/m 0,0 km/h (0 Bft) N -0,7 C -0,2 C 0,0 km/h (0 Bft)
Min-Datum _ 14.02.13 12.02.13 11.02.13 - 12.02.13 - 14.02.13 11.02.13 12.02.13
_ Min-Zeit 07:25 14:00 13:30 - 17:25 - 07:20 06:55 17:25
Minimum _ -8,6 C 64 % 1010,4 hPa - 0,0 km/h (0 Bft) - -9,4 C -13,6 C 0,0 km/h (0 Bft)
Max-Datum _ 16.02.13 16.02.13 14.02.13 16.02.13 11.02.13 - 16.02.13 16.02.13 11.02.13
_ Max-Zeit 13:00 22:50 00:30 07:10 13:45 - 13:15 13:10 13:45
Maximum _ 2,9 C 98 % 1028,8 hPa 0,6 l/m 19,3 km/h
O (3 Bft)
- 2,5 C 2,9 C 32,2 km/h
O (5 Bft)
Durchschnitt _ -1,4 C 90 % 1020,2 hPa #2,6 l/m 3,5 km/h (1 Bft) O-SO -2,8 C -2,1 C 5,8 km/h (2 Bft)